| Date | Time | Temp. (oF) | Dew Point (oF) | Rel. Hum. (%) | Press. (in.) | Wind Dir. | Wind Speed (mph) | Hourly Rainfall (in.) |
|
|---|---|---|---|---|---|---|---|---|---|
| 1 | 08/13 | 00:00 | 76 | 74 | 96 | 30.23 | NE | 0 | 0.00 |
| 2 | 08/12 | 23:00 | 77 | 74 | 92 | 30.23 | S | 3 | 0.00 |
| 3 | 08/12 | 22:00 | 78 | 75 | 91 | 30.21 | SSE | 3 | 0.00 |
| 4 | 08/12 | 21:00 | 79 | 74 | 87 | 30.19 | SSW | 3 | 0.00 |
| 5 | 08/12 | 20:00 | 81 | 74 | 82 | 30.16 | S | 3 | 0.00 |
| 6 | 08/12 | 19:00 | 84 | 73 | 71 | 30.13 | S | 3 | 0.00 |
| 7 | 08/12 | 18:00 | 86 | 72 | 64 | 30.11 | SSE | 1 | 0.00 |
| 8 | 08/12 | 17:00 | 86 | 72 | 64 | 30.11 | S | 2 | 0.00 |
| 9 | 08/12 | 16:00 | 86 | 72 | 64 | 30.11 | SSW | 4 | 0.00 |
| 10 | 08/12 | 15:00 | 86 | 72 | 64 | 30.13 | SSW | 6 | 0.00 |
| 11 | 08/12 | 14:00 | 84 | 71 | 67 | 30.13 | W | 4 | 0.00 |
| 12 | 08/12 | 13:00 | 84 | 72 | 69 | 30.13 | SW | 1 | 0.00 |
| 13 | 08/12 | 12:00 | 83 | 74 | 76 | 30.13 | SSE | 1 | 0.00 |
| 14 | 08/12 | 11:00 | 79 | 73 | 82 | 30.12 | SSE | 1 | 0.00 |
| 15 | 08/12 | 10:00 | 76 | 76 | 100 | 30.12 | ESE | 0 | 0.00 |
| 16 | 08/12 | 09:00 | 73 | 72 | 100 | 30.11 | NNW | 1 | 0.00 |
| 17 | 08/12 | 08:00 | 73 | 72 | 100 | 30.09 | S | 0 | 0.00 |
| 18 | 08/12 | 07:00 | 73 | 72 | 100 | 30.07 | SE | 1 | 0.00 |
| 19 | 08/12 | 06:00 | 73 | 72 | 100 | 30.05 | S | 1 | 0.00 |
| 20 | 08/12 | 05:00 | 73 | 72 | 100 | 30.04 | ESE | 1 | 0.00 |
| 21 | 08/12 | 04:00 | 73 | 72 | 100 | 30.02 | SSE | 0 | 0.00 |
| 22 | 08/12 | 03:00 | 73 | 72 | 100 | 30.02 | SSE | 0 | 0.00 |
| 23 | 08/12 | 02:00 | 73 | 72 | 100 | 30.02 | S | 2 | 0.00 |
| 24 | 08/12 | 01:00 | 73 | 72 | 100 | 30.02 | ESE | 2 | 0.00 |